Date,TemperatureHighF,TemperatureAvgF,TemperatureLowF,DewpointHighF,DewpointAvgF,DewpointLowF,HumidityHigh,HumidityAvg,HumidityLow,PressureMaxIn,PressureMinIn,WindSpeedMaxMPH,WindSpeedAvgMPH,GustSpeedMaxMPH,PrecipitationSumIn
2014-1-1,41.1,31.3,21.5,27.8,22.7,15.6,83,71,53,30.39,30.14,10,1,12,0.00
2014-1-2,33.5,29.7,20.2,28.9,25.5,17.6,92,85,71,30.15,29.58,19,3,19,0.00
2014-1-3,20.1,15.1,7.8,17.6,7.1,0.7,92,71,53,30.47,29.58,23,5,23,0.09
2014-1-4,27.7,16.7,5.2,18.1,9.4,0.4,89,73,56,30.52,30.24,14,1,14,0.01
2014-1-5,47.2,31.2,17.2,46.6,29.4,14.3,100,93,88,30.27,29.66,7,1,7,0.04
2014-1-6,55.6,38.9,10.0,55.3,32.2,-6.7,99,78,46,29.94,29.39,26,5,28,0.34
2014-1-7,12.3,7.8,2.0,-0.6,-6.4,-12.3,61,52,46,30.42,29.94,25,5,26,0.00
2014-1-8,25.2,17.1,7.2,12.8,4.5,-1.9,74,58,44,30.59,30.42,10,1,10,0.00
2014-1-9,31.7,25.6,21.3,17.9,15.4,12.4,79,65,55,30.65,30.48,11,1,11,0.00
2014-1-10,36.6,32.8,27.5,35.6,29.9,20.9,96,89,76,30.54,30.11,5,1,5,0.47
2014-1-11,58.4,49.6,36.6,58.1,49.1,35.6,100,98,96,30.11,29.32,13,2,16,0.71
2014-1-12,49.8,41.1,30.6,49.0,33.9,27.9,97,76,62,30.09,29.44,15,2,21,0.00
2014-1-13,56.1,41.4,28.1,42.0,34.4,26.3,95,77,56,30.10,29.84,14,2,14,0.00
2014-1-14,46.9,44.3,37.3,45.8,42.2,36.0,97,92,77,29.86,29.66,8,1,11,0.26
2014-1-15,44.5,38.0,32.3,44.0,36.9,31.3,98,96,88,29.96,29.85,15,1,15,0.01
2014-1-16,38.6,33.3,26.0,35.0,26.6,21.4,91,77,57,29.97,29.83,13,2,13,0.01
2014-1-17,43.3,33.2,24.3,33.1,27.7,21.3,95,81,65,29.96,29.80,9,1,9,0.00
2014-1-18,37.6,30.5,21.2,32.9,21.7,11.4,93,70,54,29.94,29.70,20,4,20,0.00
2014-1-19,40.3,30.5,20.1,26.7,20.0,12.0,77,65,55,29.90,29.67,15,2,15,0.00
2014-1-20,38.9,34.9,33.7,29.9,27.5,25.8,84,74,59,29.68,29.63,11,2,11,0.00
2014-1-21,35.6,22.9,12.8,25.2,17.3,8.1,92,80,60,29.92,29.76,18,4,18,0.00
2014-1-22,16.1,9.7,3.0,8.3,-0.6,-5.9,81,63,52,30.03,29.80,23,5,23,0.00
2014-1-23,23.2,14.7,5.0,10.9,5.1,0.2,90,66,53,30.33,30.03,18,2,18,0.03
2014-1-24,19.3,14.1,8.1,7.2,2.6,-0.1,73,60,48,30.44,30.05,21,3,21,0.00
2014-1-25,26.3,21.7,18.2,21.8,14.2,7.0,95,73,55,30.05,29.44,26,5,26,0.00
2014-1-26,28.2,22.7,12.3,22.4,12.9,5.4,89,67,46,29.92,29.54,20,2,20,0.07
2014-1-27,46.1,30.8,19.3,33.6,19.2,2.8,86,63,41,30.12,29.60,24,3,24,0.20
2014-1-28,19.3,14.3,10.6,3.3,-0.6,-4.2,65,51,44,30.40,30.12,12,3,18,0.01
2014-1-29,21.0,14.6,10.0,7.4,2.7,-3.0,83,60,43,30.33,30.14,18,2,18,0.01
2014-1-30,27.4,17.5,8.0,12.4,6.6,1.0,82,63,44,30.47,30.17,9,1,9,0.02
2014-1-31,45.2,30.5,17.0,25.7,20.5,12.2,92,68,38,30.22,30.09,12,1,12,0.02
2014-2-1,46.4,36.6,28.5,33.7,27.6,23.1,90,71,47,30.29,29.96,7,1,7,0.00
2014-2-2,50.9,40.4,29.3,40.4,34.5,27.8,95,81,59,30.05,29.90,10,1,10,0.00
2014-2-3,42.8,34.0,27.9,39.1,31.9,24.3,95,92,86,30.30,30.00,15,3,15,0.78
2014-2-4,34.8,28.4,21.3,28.8,23.3,17.0,92,81,68,30.45,30.15,10,2,10,0.28
2014-2-5,33.3,31.9,30.8,32.3,30.6,28.8,96,95,92,30.16,29.64,10,0,10,1.38
2014-2-6,32.2,26.5,22.6,23.6,18.8,15.3,92,73,60,30.30,30.00,19,3,25,0.03
2014-2-7,35.6,27.9,19.7,23.6,20.1,16.5,95,73,52,30.33,30.22,8,1,10,0.05
2014-2-8,29.3,24.7,20.7,21.3,16.3,10.1,89,71,48,30.33,30.15,11,1,11,0.01
2014-2-9,28.2,24.7,20.2,24.5,18.4,14.5,93,77,62,30.17,29.98,10,1,10,0.00
2014-2-10,29.0,24.2,19.3,22.5,15.0,11.5,98,68,53,30.24,30.01,18,3,18,0.05
2014-2-11,28.8,20.4,14.6,13.1,9.5,5.8,81,63,47,30.47,30.28,14,2,15,0.02
2014-2-12,26.2,20.0,10.3,21.0,10.9,3.0,91,68,54,30.53,30.18,11,2,12,0.00
2014-2-13,33.4,28.1,23.2,31.9,26.5,21.0,100,94,91,30.18,29.59,30,6,30,0.00
2014-2-14,44.4,35.4,29.6,30.7,27.6,22.2,95,74,53,29.76,29.15,22,4,22,0.42
2014-2-15,35.2,32.7,27.5,32.2,27.1,16.6,92,80,62,29.84,29.52,23,4,23,0.10
2014-2-16,30.1,24.6,19.7,16.9,13.1,9.9,67,61,52,30.01,29.84,15,3,15,0.01
2014-2-17,33.4,27.0,18.5,18.2,13.2,7.7,76,56,41,30.42,30.18,13,2,13,0.00
2014-2-18,44.9,33.2,25.1,34.1,27.6,15.0,93,81,61,30.25,29.96,15,1,15,0.21
2014-2-19,43.8,36.2,28.5,41.2,32.9,25.9,98,88,69,30.08,29.67,14,1,14,0.46
2014-2-20,50.4,40.3,29.5,34.8,30.3,26.1,92,69,43,30.25,29.94,11,1,11,0.00
2014-2-21,52.4,40.5,37.7,51.8,38.1,31.9,100,91,76,29.94,29.62,10,1,10,0.00
2014-2-22,34.1,31.9,29.6,32.9,30.0,27.8,96,93,89,30.04,29.93,3,0,4,0.01
2014-2-23,59.3,46.2,36.8,37.6,34.3,30.8,84,65,41,29.99,29.84,12,1,14,0.00
2014-2-24,39.9,34.7,26.3,33.9,21.2,14.0,90,60,39,30.10,29.85,22,3,22,0.01
2014-2-25,35.0,27.6,22.8,24.1,18.7,14.2,81,69,55,30.10,29.94,16,2,16,0.00
2014-2-26,33.9,25.7,16.4,25.6,16.0,5.9,91,68,43,29.97,29.83,12,2,21,0.13
2014-2-27,34.4,23.0,13.3,22.3,9.8,-5.8,79,58,39,30.14,29.64,24,3,24,0.00
2014-2-28,26.2,16.6,8.2,5.2,-1.9,-7.2,59,44,31,30.41,30.14,12,2,14,0.00
2014-3-1,38.5,27.3,13.7,26.5,16.2,3.9,80,63,46,30.39,30.14,12,1,12,0.00
2014-3-2,40.7,34.7,28.6,33.8,29.2,22.9,92,81,58,30.14,29.97,7,1,7,0.10
2014-3-3,31.7,19.7,12.6,29.5,12.3,2.8,92,73,57,30.32,29.97,14,3,19,0.00
2014-3-4,27.1,19.2,10.8,15.3,7.8,1.1,77,61,47,30.40,30.22,10,2,10,0.20
2014-3-5,43.4,29.6,17.1,21.1,15.0,10.4,79,57,33,30.40,30.17,16,2,16,0.05
2014-3-6,33.2,26.5,20.3,20.1,14.1,7.0,76,60,43,30.59,30.39,13,3,17,0.00
2014-3-7,40.4,33.5,26.4,31.8,26.3,20.0,80,74,69,30.39,29.87,15,3,15,0.00
2014-3-8,57.5,44.6,29.9,38.6,33.5,27.1,92,66,47,29.90,29.81,19,2,19,0.00
2014-3-9,46.4,41.2,36.3,37.8,28.5,21.0,88,62,43,30.03,29.87,16,3,16,0.01
2014-3-10,55.3,42.0,34.6,37.0,27.9,21.9,66,57,47,29.96,29.63,14,2,14,0.00
2014-3-11,64.0,51.3,37.4,44.9,39.1,32.5,85,64,48,29.68,29.57,13,1,13,0.00
2014-3-12,65.8,48.2,28.9,55.1,41.1,20.0,93,77,58,29.63,28.99,19,2,29,0.31
2014-3-13,32.4,25.8,19.5,19.9,9.2,5.7,69,50,34,30.12,29.28,32,6,32,0.00
2014-3-14,49.6,35.1,20.6,30.9,20.3,7.3,70,55,43,30.20,29.86,19,4,19,0.00
2014-3-15,63.4,51.5,42.8,38.5,32.4,27.5,63,49,34,30.00,29.76,21,4,21,0.00
2014-3-16,44.2,37.7,31.2,28.8,19.7,13.3,66,49,33,30.17,30.00,17,3,17,0.00
2014-3-17,31.2,26.9,22.5,21.8,19.3,12.1,90,74,45,30.09,29.99,12,3,16,0.12
2014-3-18,45.3,35.6,29.4,30.3,22.4,14.2,78,59,41,30.25,30.07,19,3,19,0.08
2014-3-19,45.0,37.1,33.5,43.4,32.3,27.9,96,83,75,30.22,29.83,11,3,12,0.78
2014-3-20,55.6,46.7,40.6,43.3,36.1,26.3,97,70,42,29.94,29.74,17,3,23,0.01
2014-3-21,56.5,42.2,29.4,31.4,27.7,24.8,92,59,31,30.02,29.93,15,2,17,0.00
2014-3-22,68.3,49.8,35.2,44.7,35.9,29.3,90,62,33,30.01,29.75,13,2,22,0.00
2014-3-23,47.7,42.7,35.2,31.3,27.9,17.3,64,56,45,30.07,29.94,14,3,14,0.00
2014-3-24,36.9,26.2,21.6,15.4,10.8,6.2,61,52,35,30.27,30.10,20,5,20,0.00
2014-3-25,36.8,29.1,21.6,29.1,21.0,13.4,92,72,61,30.14,29.84,10,2,12,0.00
2014-3-26,37.5,31.6,28.4,27.0,17.6,6.6,90,59,34,30.25,29.78,25,5,25,0.10
2014-3-27,42.1,30.9,20.6,27.3,14.5,6.8,72,51,38,30.41,30.23,16,2,16,0.00
2014-3-28,63.9,50.8,34.4,53.1,44.0,26.5,90,78,67,30.23,29.95,28,4,28,0.03
2014-3-29,57.5,49.4,45.8,51.4,47.1,44.7,98,92,80,30.08,29.56,19,4,19,1.71
2014-3-30,47.9,43.5,37.5,47.0,41.8,33.5,97,94,83,29.68,29.44,22,6,24,0.87
2014-3-31,61.4,46.7,35.7,42.0,35.3,31.9,90,67,40,30.06,29.68,25,6,25,0.03
2014-4-1,58.5,47.3,36.4,41.3,35.1,29.3,80,63,47,30.13,29.95,14,2,14,0.00
2014-4-2,59.0,47.8,39.7,48.9,42.4,36.0,92,82,67,30.12,30.00,7,1,7,0.00
2014-4-3,63.2,55.4,48.6,48.4,40.6,28.4,90,61,29,30.09,29.93,13,1,13,0.05
2014-4-4,50.2,46.0,43.9,44.6,41.5,36.5,95,84,74,30.00,29.69,16,4,16,0.03
2014-4-5,56.1,47.7,40.5,43.3,36.7,27.8,96,68,45,30.10,29.69,25,4,25,0.00
2014-4-6,57.9,45.9,34.3,35.6,29.3,25.1,72,54,36,30.20,30.09,13,2,13,0.00
2014-4-7,50.5,44.7,36.2,49.7,41.1,33.4,97,87,69,30.18,29.61,14,2,14,0.47
2014-4-8,65.2,57.2,47.6,56.6,48.8,38.8,98,76,49,29.64,29.42,21,3,21,0.01
2014-4-9,66.8,52.6,38.9,41.4,36.6,31.9,88,58,31,30.00,29.62,18,2,18,0.00
2014-4-10,65.3,52.2,36.8,43.2,37.7,31.1,82,59,41,30.20,30.00,19,3,19,0.00
2014-4-11,79.0,62.5,50.8,55.8,47.8,39.1,90,60,36,30.02,29.89,18,2,18,0.01
2014-4-12,61.6,54.7,50.0,55.1,51.0,47.1,94,88,59,30.21,29.99,8,0,8,0.00
2014-4-13,81.3,57.3,50.2,60.9,50.7,45.8,92,80,46,30.16,29.95,14,1,17,0.00
2014-4-14,77.2,68.0,60.7,62.0,58.8,56.5,87,74,53,29.99,29.79,26,5,26,0.00
2014-4-15,65.4,63.2,61.1,64.7,60.4,57.4,98,91,81,29.80,29.50,17,3,17,0.53
2014-4-16,44.2,33.1,29.6,33.9,23.0,16.2,91,67,46,30.40,29.92,20,6,21,0.00
2014-4-17,53.5,42.6,33.8,37.7,30.1,22.9,78,62,48,30.67,30.52,13,3,13,0.00
2014-4-18,53.6,42.8,37.9,39.2,33.3,30.4,79,70,54,30.59,30.29,7,2,11,0.00
2014-4-19,68.0,43.5,39.3,44.2,39.0,37.0,93,85,37,30.26,30.20,14,0,14,0.00
2014-4-20,45.1,44.3,43.0,29.0,27.4,25.9,54,51,47,30.31,30.28,3,0,5,0.00
2014-4-21,64.2,45.7,38.7,40.3,29.5,25.2,63,54,30,30.28,30.04,7,2,9,0.00
2014-4-22,57.1,56.9,56.9,50.1,49.9,49.8,78,78,77,29.68,29.68,10,8,11,0.00
2014-4-23,60.5,53.2,45.1,49.9,39.3,32.0,74,59,49,29.91,29.55,25,5,25,0.00
2014-4-24,65.0,50.9,39.7,33.5,29.2,23.9,69,45,26,30.02,29.89,22,3,22,0.00
2014-4-25,65.0,51.6,39.3,46.2,33.6,23.0,92,53,31,30.02,29.69,14,2,14,0.52
2014-4-26,71.2,58.3,46.4,52.8,47.0,36.8,96,69,37,29.85,29.65,19,3,19,0.03
2014-4-27,64.1,54.3,42.9,43.8,38.7,35.4,78,56,42,30.10,29.85,15,2,15,0.00
2014-4-28,62.4,52.5,41.5,48.5,40.0,34.5,79,63,50,30.12,29.97,10,1,10,0.00
2014-4-29,48.5,47.3,43.7,45.7,43.7,41.6,95,87,79,30.27,30.06,20,3,20,0.56
2014-4-30,60.7,49.1,43.0,60.4,48.4,41.9,99,97,95,30.26,29.83,17,4,18,5.18
2014-5-1,76.9,63.1,60.2,63.3,61.0,57.2,100,94,54,29.83,29.66,12,1,12,0.12
2014-5-2,68.6,61.1,52.7,51.8,45.6,42.6,83,58,43,29.85,29.71,12,2,19,0.00
2014-5-3,67.9,56.3,48.7,48.8,45.5,43.2,85,68,46,29.86,29.75,12,1,13,0.00
2014-5-4,60.4,54.9,52.0,51.0,48.7,46.1,96,81,61,29.80,29.76,11,2,11,0.00
2014-5-5,70.5,57.5,47.3,45.5,40.2,36.8,69,54,34,29.95,29.83,12,2,17,0.00
2014-5-6,74.3,61.5,49.6,47.8,41.5,34.6,71,49,32,29.97,29.85,12,1,13,0.00
2014-5-7,63.9,54.1,48.8,49.2,38.6,34.9,81,56,42,30.20,30.04,11,1,11,0.01
2014-5-8,71.5,60.6,54.0,62.3,54.5,47.7,88,81,70,30.15,30.00,4,1,6,0.02
2014-5-9,72.8,68.7,67.4,65.4,61.4,59.6,82,78,76,30.12,29.92,5,2,5,0.00
2014-5-10,81.2,71.1,69.7,67.6,64.3,62.2,85,79,58,29.94,29.83,18,1,18,0.01
2014-5-11,78.7,73.7,71.3,64.5,59.9,51.7,79,64,43,30.07,29.89,6,1,12,0.00
2014-5-12,83.9,76.5,75.1,69.2,57.7,55.2,67,53,50,30.10,29.99,12,0,12,0.00
2014-5-13,81.6,76.5,66.2,67.3,62.9,55.6,77,63,58,30.21,29.98,14,2,14,0.00
2014-5-14,67.3,67.3,67.3,55.6,55.6,55.6,66,66,66,30.25,30.13,4,4,4,0.00
2014-5-15,80.9,71.0,67.3,71.1,60.1,55.6,93,69,65,30.16,30.00,16,4,16,0.00
2014-5-16,73.4,69.3,59.7,67.9,65.5,59.1,98,88,83,29.97,29.76,6,2,11,0.07
2014-5-17,68.4,63.9,61.3,61.8,54.2,46.0,96,73,47,30.10,29.87,8,1,12,0.00
2014-5-18,67.1,63.5,57.6,51.3,46.0,41.5,66,53,45,30.18,30.10,11,2,14,0.00
2014-5-19,74.1,66.2,62.2,51.5,44.4,42.8,51,46,35,30.22,30.08,12,1,12,0.00
2014-5-20,76.6,71.0,65.0,54.7,48.7,45.2,56,45,38,30.15,29.98,9,1,10,0.00
2014-5-21,65.2,64.7,64.6,61.7,61.1,60.9,90,88,87,29.90,29.88,0,0,0,0.03
2014-5-22,77.6,18.6,0.0,69.2,16.8,0.0,94,20,73,29.87,29.67,3,0,5,0.01
2014-5-23,76.4,73.1,61.5,67.9,59.2,51.2,76,63,48,29.94,29.79,12,2,12,0.00
2014-5-24,75.4,71.2,64.3,59.2,54.4,45.3,74,56,50,30.08,29.92,12,1,12,0.00
2014-5-25,82.5,75.1,72.3,59.0,56.3,53.1,61,52,39,30.10,30.03,13,1,13,0.00
2014-5-26,88.5,78.2,76.1,65.5,55.0,51.7,64,45,41,30.08,29.90,10,0,10,0.00
2014-5-27,86.3,81.6,71.1,72.2,65.4,53.4,75,58,54,29.92,29.78,10,0,10,0.00
2014-5-28,73.8,43.5,0.0,69.3,41.5,0.0,90,54,85,30.10,29.76,4,1,11,0.00
2014-5-29,72.1,65.1,54.9,69.0,61.9,50.4,91,89,83,30.19,30.10,4,1,4,0.00
2014-5-30,73.8,63.9,55.6,61.0,56.4,53.0,91,78,58,30.13,29.97,7,0,7,0.00
2014-5-31,78.7,72.3,66.7,59.8,54.9,48.3,69,55,38,30.23,30.04,14,1,14,0.00
2014-6-1,76.3,29.8,0.0,55.8,22.0,0.0,61,21,43,30.34,30.22,11,0,11,0.00
2014-6-2,79.2,70.2,0.0,63.1,54.4,0.0,66,55,51,30.25,30.01,15,2,15,0.00
2014-6-3,85.3,46.2,0.0,74.1,40.9,0.0,92,43,61,30.02,29.77,14,0,14,0.05
2014-6-4,88.1,80.5,72.2,69.2,66.3,60.1,78,63,44,29.82,29.69,11,1,11,0.00
2014-6-5,79.4,76.0,62.3,65.3,60.7,56.4,94,60,51,29.79,29.57,11,1,14,0.00
2014-6-6,78.7,67.9,0.0,61.7,52.2,0.0,64,50,48,29.94,29.77,11,2,12,0.00
2014-6-7,84.6,47.4,0.0,65.5,36.8,0.0,65,33,44,30.00,29.89,6,1,12,0.00
2014-6-8,82.9,79.1,74.0,65.3,63.3,59.5,71,59,49,29.93,29.82,6,1,11,0.00
2014-6-9,80.4,40.2,0.0,73.1,37.0,0.0,97,43,60,29.88,29.82,7,0,13,0.00
2014-6-10,84.7,44.8,0.0,75.6,41.5,0.0,98,46,68,29.92,29.84,4,0,5,0.06
2014-6-11,81.4,74.0,65.5,75.0,69.6,59.5,93,86,81,30.06,29.92,11,1,11,0.00
2014-6-12,71.3,68.5,65.6,70.7,67.1,63.8,99,95,91,30.03,29.85,4,0,4,0.18
2014-6-13,84.2,74.0,71.1,75.1,71.6,70.5,100,93,71,29.85,29.69,6,0,11,0.27
2014-6-14,75.6,70.5,0.0,70.3,61.3,0.0,94,73,54,30.06,29.76,13,2,17,0.00
2014-6-15,83.3,31.2,0.0,64.0,24.6,0.0,72,24,47,30.13,30.02,7,1,10,0.00
2014-6-16,85.8,79.7,74.6,69.5,63.5,57.9,67,58,48,30.12,30.00,11,0,11,0.00
2014-6-17,93.8,81.9,78.8,75.6,68.6,66.1,76,64,48,30.05,29.88,11,1,11,0.00
2014-6-18,93.8,20.7,0.0,75.3,16.9,0.0,76,14,51,29.93,29.81,16,0,16,0.00
2014-6-19,78.7,60.6,0.0,72.1,57.3,0.0,97,72,75,30.00,29.88,18,1,18,0.20
2014-6-20,83.1,66.4,60.2,65.2,57.4,51.9,96,74,40,30.00,29.89,11,1,12,0.00
2014-6-21,77.4,70.4,65.3,63.7,58.3,52.8,86,66,53,29.92,29.84,3,0,6,0.00
2014-6-22,80.3,66.8,62.1,65.6,61.7,58.3,96,85,57,30.00,29.86,12,0,12,0.00
2014-6-23,82.0,71.7,61.0,66.0,61.5,57.5,96,72,51,30.12,30.00,11,1,11,0.00
2014-6-24,84.3,73.7,63.2,68.9,64.7,59.3,91,74,56,30.13,29.98,14,1,14,0.00
2014-6-25,87.3,77.8,71.1,76.6,73.2,68.1,95,86,68,30.00,29.77,15,1,15,0.53
2014-6-26,84.6,76.3,69.0,72.2,69.6,66.3,99,81,60,29.93,29.80,7,1,9,0.14
2014-6-27,81.7,73.9,68.6,71.2,67.0,59.0,89,79,64,30.19,29.93,10,1,10,0.00
2014-6-28,84.0,73.3,61.6,67.0,62.3,57.6,93,70,51,30.26,30.16,13,0,13,0.00
2014-6-29,83.6,73.9,63.7,70.1,64.6,60.0,95,74,55,30.22,30.09,12,1,12,0.00
2014-6-30,84.1,75.4,67.3,71.6,67.9,63.0,92,78,60,30.09,29.92,11,1,11,0.00
2014-7-1,90.6,80.4,70.6,77.4,72.6,67.7,94,78,61,29.94,29.79,17,1,17,0.00
2014-7-2,93.5,83.2,73.7,82.2,76.5,71.9,97,81,66,29.89,29.76,15,1,15,0.49
2014-7-3,89.5,77.9,71.0,79.3,73.8,68.0,98,88,65,29.97,29.80,26,1,26,0.12
2014-7-4,78.3,70.9,65.4,70.2,63.2,52.3,96,78,55,30.09,29.90,21,2,21,0.02
2014-7-5,84.1,71.2,60.7,62.0,55.7,51.5,78,59,40,30.19,30.08,19,2,19,0.00
2014-7-6,84.6,70.7,62.4,67.4,59.6,55.0,83,69,47,30.11,29.92,15,1,15,0.00
2014-7-7,90.7,81.3,72.6,72.3,68.6,65.1,81,66,50,29.92,29.74,21,2,21,0.00
2014-7-8,93.0,82.2,70.1,76.2,71.2,66.8,92,70,52,29.82,29.64,22,2,22,0.17
2014-7-9,88.1,76.8,69.2,75.5,71.0,67.4,96,84,58,29.92,29.77,12,1,14,0.00
2014-7-10,85.5,77.0,72.9,72.2,70.4,66.5,91,81,55,30.10,29.92,10,0,10,0.00
2014-7-11,86.3,76.5,66.9,72.5,68.4,64.2,96,78,52,30.19,30.06,7,1,7,0.11
2014-7-12,87.0,76.4,66.7,73.4,68.6,64.6,96,78,56,30.20,30.09,12,1,12,0.00
2014-7-13,88.7,79.1,71.5,77.2,72.9,68.7,96,82,64,30.10,29.86,15,1,15,0.01
2014-7-14,88.2,77.3,71.1,79.3,73.6,69.5,98,89,68,29.91,29.74,9,0,19,0.75
2014-7-15,88.7,75.8,71.6,78.3,73.7,71.0,99,94,64,29.81,29.67,9,0,9,0.26
2014-7-16,83.6,72.2,66.2,71.1,67.5,59.9,98,87,53,29.88,29.72,5,1,12,0.02
2014-7-17,82.3,72.2,63.9,65.1,60.1,57.3,81,67,46,30.09,29.86,12,1,12,0.00
2014-7-18,84.2,72.7,62.2,63.9,59.2,55.2,81,64,44,30.20,30.09,7,0,7,0.00
2014-7-19,79.6,72.4,66.6,66.5,61.9,57.6,83,70,53,30.20,30.11,9,0,9,0.00
2014-7-20,80.9,73.3,67.6,67.9,65.1,62.7,88,76,62,30.11,30.04,10,1,10,0.00
2014-7-21,83.6,73.3,62.7,69.9,65.1,61.0,95,77,54,30.17,30.10,10,0,10,0.00
2014-7-22,86.5,75.9,66.3,73.6,68.1,63.3,94,78,63,30.17,30.03,7,1,11,0.00
2014-7-23,90.2,78.2,69.7,78.3,72.2,65.6,97,83,64,30.03,29.75,14,1,14,0.26
2014-7-24,84.3,74.5,69.2,70.2,64.9,57.7,97,74,50,29.90,29.79,11,1,11,0.00
2014-7-25,82.0,67.5,61.4,64.8,56.7,53.4,78,69,49,30.01,29.89,10,1,10,0.00
2014-7-26,79.9,71.7,63.5,72.7,66.2,57.7,91,83,74,29.98,29.86,7,0,7,0.01
2014-7-27,90.5,78.5,71.0,76.2,72.2,68.6,96,82,60,29.88,29.59,17,1,17,0.54
2014-7-28,82.2,70.5,66.8,70.7,66.8,62.3,99,89,55,29.73,29.51,15,1,15,1.14
2014-7-29,74.4,68.4,60.9,62.9,59.2,56.7,87,73,56,29.96,29.73,10,1,10,0.00
2014-7-30,79.7,69.3,59.3,61.4,57.7,54.0,83,68,48,30.03,29.94,9,1,9,0.00
2014-7-31,84.9,73.0,61.4,69.2,63.7,56.6,89,74,50,30.10,30.02,11,1,11,0.00
2014-8-1,80.1,72.7,69.1,73.8,69.2,66.7,94,89,76,30.17,30.10,5,0,9,0.01
2014-8-2,75.2,70.3,65.5,68.9,66.8,64.3,97,89,79,30.15,30.05,10,1,10,0.51
2014-8-3,73.4,69.4,66.2,70.2,67.3,65.1,98,93,84,30.10,30.00,7,0,7,0.18
2014-8-4,84.4,74.3,68.3,72.0,68.4,65.6,98,83,57,30.07,30.00,7,0,7,0.01
2014-8-5,89.9,76.1,65.1,71.4,66.4,63.3,96,75,44,30.03,29.88,8,0,8,0.00
2014-8-6,81.0,72.6,66.8,69.7,65.4,62.2,89,79,67,29.90,29.84,10,0,10,0.00
2014-8-7,85.6,73.8,63.1,66.4,61.8,56.7,86,67,47,30.01,29.89,9,1,9,0.00
2014-8-8,83.8,72.5,62.0,63.8,58.2,53.4,76,62,45,30.10,30.01,10,1,10,0.00
2014-8-9,86.0,73.5,61.8,66.2,61.1,57.1,88,67,45,30.09,30.03,7,0,7,0.00
2014-8-10,86.8,74.4,61.7,67.4,62.1,59.1,93,68,42,30.11,30.04,9,0,9,0.00
2014-8-11,82.3,69.0,61.6,65.7,62.1,59.0,94,80,55,30.11,30.08,7,0,7,0.00
2014-8-12,76.3,71.5,67.4,72.1,69.0,66.5,99,92,83,30.03,29.76,11,0,11,2.18
2014-8-13,84.3,70.6,67.3,71.5,67.6,60.0,100,91,56,29.82,29.68,16,1,16,0.07
2014-8-14,80.4,69.2,57.4,63.3,58.0,53.6,88,69,50,29.90,29.80,13,1,16,0.00
2014-8-15,78.1,67.2,58.0,59.1,55.0,50.3,81,66,46,29.97,29.88,14,1,14,0.00
2014-8-16,81.3,68.0,55.8,64.2,57.6,52.8,91,72,47,30.00,29.89,11,0,11,0.00
2014-8-17,82.7,67.7,61.3,69.6,61.7,58.1,94,82,59,29.90,29.82,9,0,9,0.00
2014-8-18,82.5,71.4,61.7,67.1,60.9,56.5,90,71,53,29.91,29.78,6,0,7,0.00
2014-8-19,85.2,73.1,65.4,71.2,65.5,59.4,92,78,57,29.90,29.80,10,0,10,0.00
2014-8-20,85.0,75.4,68.4,71.6,67.4,63.8,93,77,60,30.00,29.88,7,0,11,0.00
2014-8-21,81.5,74.1,66.2,73.8,69.2,64.2,95,85,75,30.03,29.95,12,0,12,0.00
2014-8-22,79.5,72.1,67.0,71.6,68.1,63.3,98,88,74,30.00,29.92,10,0,10,0.81
2014-8-23,71.3,68.2,66.3,66.5,64.9,63.3,96,89,82,30.06,29.97,9,1,9,0.18
2014-8-24,82.7,66.8,62.7,67.7,62.7,61.2,97,88,51,30.12,30.05,9,1,10,0.00
2014-8-25,85.4,66.9,59.5,68.2,61.7,57.8,95,85,52,30.16,30.09,5,0,7,0.00
2014-8-26,88.8,76.2,64.8,71.2,65.7,59.8,88,71,51,30.14,30.03,9,1,9,0.00
2014-8-27,90.0,75.8,63.1,73.9,67.9,61.0,95,78,56,30.07,29.84,12,0,12,0.00
2014-8-28,82.3,74.1,65.1,69.9,62.6,55.4,85,69,47,30.06,29.82,18,2,18,0.00
2014-8-29,79.1,68.0,58.9,61.9,56.2,51.5,86,67,47,30.21,30.06,9,1,9,0.00
2014-8-30,79.2,63.8,59.5,68.0,60.2,57.5,95,89,66,30.23,30.12,10,0,10,0.00
2014-8-31,91.4,76.9,70.3,79.3,72.9,66.8,98,88,61,30.12,29.94,15,1,16,1.15
2014-9-1,87.3,75.2,71.8,77.8,73.4,71.4,99,95,69,29.99,29.89,9,0,9,0.19
2014-9-2,93.1,81.4,71.7,77.9,73.8,70.2,97,80,57,29.92,29.79,14,1,14,0.16
2014-9-3,86.2,75.3,66.9,70.9,67.6,63.7,95,78,53,30.09,29.84,7,1,7,0.00
2014-9-4,66.8,66.8,66.8,63.8,63.8,63.8,90,90,90,30.09,30.09,0,0,1,0.00
2014-9-5,88.0,78.4,70.9,78.1,73.8,68.1,97,87,69,30.15,29.99,9,0,9,0.00
2014-9-6,93.4,80.1,70.7,79.8,74.6,68.5,96,85,57,29.99,29.82,15,1,15,0.25
2014-9-7,82.7,69.1,63.7,69.0,62.1,58.5,95,80,48,30.15,29.92,11,1,13,0.00
2014-9-8,73.1,66.6,63.8,64.9,61.5,58.4,92,84,65,30.26,30.14,14,1,14,0.00
2014-9-9,75.1,69.7,66.1,66.4,62.9,60.1,84,79,72,30.20,30.09,13,2,14,0.00
2014-9-10,80.2,71.0,66.1,66.0,62.5,60.2,91,75,57,30.10,29.98,7,1,10,0.00
2014-9-11,84.7,75.0,66.4,75.0,69.9,63.8,93,85,71,29.99,29.81,15,1,17,0.00
2014-9-12,78.4,68.6,60.7,66.0,58.6,54.6,81,71,54,30.13,29.91,10,1,11,0.00
2014-9-13,68.3,62.5,57.0,65.6,58.7,53.5,96,87,78,30.16,30.05,11,0,11,0.55
2014-9-14,69.9,58.8,50.8,55.8,52.4,48.8,95,80,58,30.28,30.15,10,1,10,0.01
2014-9-15,72.5,60.3,51.3,56.2,51.8,47.3,89,75,53,30.23,30.05,7,0,7,0.00
2014-9-16,75.3,64.1,56.6,61.7,57.7,53.6,97,81,59,30.05,29.93,9,0,10,0.24
2014-9-17,73.1,62.7,55.5,57.6,53.7,51.1,90,74,52,30.04,29.92,5,0,5,0.00
2014-9-18,73.1,61.5,52.4,61.6,56.5,50.3,94,84,64,30.07,29.92,9,0,9,0.00
2014-9-19,70.1,59.8,53.6,58.9,53.4,50.0,90,80,65,30.28,30.07,11,2,12,0.00
2014-9-20,76.6,63.5,58.2,65.6,58.9,55.5,92,86,65,30.30,30.05,7,0,9,0.00
2014-9-21,77.6,66.8,62.2,69.4,63.9,60.6,96,91,73,30.02,29.60,6,0,8,0.00
2014-9-22,71.9,65.1,55.1,64.5,54.2,45.4,86,68,52,30.18,29.64,17,2,19,0.00
2014-9-23,70.7,57.3,45.9,54.1,48.1,42.5,91,73,50,30.36,30.17,10,0,12,0.00
2014-9-24,72.2,56.5,51.6,61.0,52.3,49.4,93,87,62,30.48,30.36,15,1,16,0.02
2014-9-25,62.3,60.1,57.7,61.2,58.5,55.4,97,95,88,30.38,30.19,14,3,15,0.97
2014-9-26,79.1,64.4,54.8,61.5,56.2,51.9,92,76,50,30.21,30.13,10,2,10,0.00
2014-9-27,83.7,68.1,57.3,66.4,59.6,54.3,92,76,51,30.20,30.12,7,1,7,0.00
2014-9-28,81.6,67.7,56.7,66.2,61.0,55.3,96,81,54,30.16,30.01,7,0,10,0.00
2014-9-29,71.7,63.5,60.3,66.4,61.3,58.7,97,93,79,30.01,29.88,5,0,5,0.09
2014-9-30,77.3,67.5,62.4,64.3,62.2,60.0,99,84,61,29.94,29.84,5,0,6,0.00
2014-10-1,74.4,65.4,59.6,62.6,60.0,57.5,94,83,64,30.04,29.92,7,1,7,0.00
2014-10-2,67.2,62.9,58.0,60.5,58.7,56.2,95,86,75,30.11,30.03,6,0,6,0.00
2014-10-3,69.2,62.2,55.1,61.7,58.0,53.6,96,86,73,30.09,29.76,6,0,8,0.01
2014-10-4,68.5,62.7,46.3,66.3,59.2,38.2,98,89,59,29.77,29.53,19,1,19,0.46
2014-10-5,62.4,45.3,38.8,45.0,38.8,35.8,92,79,47,29.97,29.76,12,0,12,0.00
2014-10-6,71.3,55.5,43.2,54.8,47.1,41.4,97,76,50,30.03,29.94,17,1,19,0.00
2014-10-7,68.8,63.6,60.8,60.8,56.1,54.2,96,77,65,30.02,29.84,14,2,17,0.30
2014-10-8,75.9,64.8,58.4,62.3,57.5,46.6,97,80,49,29.96,29.80,17,2,17,0.06
2014-10-9,70.0,58.8,47.9,51.8,47.6,43.6,87,68,45,30.07,29.94,12,1,12,0.00
2014-10-10,59.0,55.3,48.2,50.4,47.9,44.6,90,76,63,30.11,30.04,4,0,4,0.00
2014-10-11,55.8,52.7,49.9,52.8,50.7,48.4,97,93,80,30.15,29.98,11,1,11,0.47
2014-10-12,63.2,52.7,44.0,50.7,46.8,41.3,95,81,59,30.28,30.14,9,1,9,0.00
2014-10-13,63.0,59.1,55.2,62.4,56.5,49.7,98,91,81,30.29,30.19,5,0,5,0.07
2014-10-14,76.0,68.9,62.3,68.3,65.3,61.7,99,89,76,30.19,30.02,14,1,14,0.01
2014-10-15,74.2,70.7,68.2,70.4,68.5,66.9,98,93,87,30.02,29.73,13,1,13,0.58
2014-10-16,68.8,62.7,56.8,68.2,59.8,55.1,100,90,73,29.73,29.66,14,1,14,0.55
2014-10-17,71.8,62.1,54.6,59.0,55.8,53.5,96,81,60,29.76,29.65,11,1,12,0.00
2014-10-18,71.8,58.3,52.0,57.2,53.4,43.9,97,85,51,29.76,29.57,20,1,20,0.00
2014-10-19,55.3,49.8,40.4,44.5,39.0,34.0,85,67,49,30.07,29.75,24,2,24,0.00
2014-10-20,61.1,48.7,36.1,49.7,41.6,33.3,92,78,53,30.11,29.92,14,0,14,0.00
2014-10-21,69.5,57.6,48.6,57.0,51.5,46.6,95,81,60,29.93,29.77,10,0,10,0.00
2014-10-22,56.7,53.9,51.0,53.3,51.6,48.2,95,92,86,29.85,29.76,19,3,19,0.44
2014-10-23,56.5,52.8,49.2,49.5,47.6,46.2,93,82,75,29.82,29.72,24,4,24,0.05
2014-10-24,56.7,54.7,53.2,49.0,48.0,47.1,80,78,76,29.84,29.78,14,1,14,0.00
2014-10-25,70.8,57.6,44.3,52.0,45.6,40.5,88,65,48,29.89,29.59,12,1,16,0.00
2014-10-26,67.6,58.1,47.3,51.0,44.3,38.4,81,61,44,29.86,29.57,21,2,21,0.00
2014-10-27,68.0,52.6,41.0,46.0,41.5,37.8,89,68,39,30.04,29.86,13,1,13,0.00
2014-10-28,74.8,58.2,45.7,59.4,51.6,42.4,95,80,57,30.01,29.88,9,0,9,0.00
2014-10-29,66.7,57.7,49.4,61.0,53.2,44.9,97,86,56,29.95,29.85,12,1,12,0.04
2014-10-30,59.0,50.1,42.2,47.7,43.2,37.7,96,78,56,30.02,29.93,12,1,12,0.01
2014-10-31,52.8,43.7,40.6,42.2,36.6,33.8,85,76,66,30.01,29.79,7,1,7,0.00
2014-11-1,49.8,45.8,42.9,45.6,41.3,35.8,94,84,68,29.80,29.72,20,4,20,0.75
2014-11-2,48.7,42.8,39.3,36.3,32.3,21.6,78,67,45,30.13,29.77,32,7,32,0.01
2014-11-3,59.6,47.4,37.7,37.2,29.6,22.1,65,51,31,30.22,30.11,15,1,15,0.00
2014-11-4,72.3,56.3,45.0,48.0,42.2,35.8,80,61,29,30.17,30.00,11,0,11,0.00
2014-11-5,68.0,56.4,47.5,50.9,45.1,39.8,90,67,49,30.14,30.00,12,0,12,0.00
2014-11-6,53.3,50.0,47.0,52.5,48.7,45.7,100,95,91,30.12,29.61,14,0,14,0.67
2014-11-7,52.5,46.7,36.1,46.6,37.0,28.3,96,70,50,29.98,29.60,21,3,21,0.01
2014-11-8,49.7,40.8,30.5,38.3,32.3,27.4,90,72,53,30.05,29.89,12,1,12,0.01
2014-11-9,56.7,46.5,37.5,41.9,38.4,33.4,91,75,53,30.00,29.87,10,1,10,0.00
2014-11-10,61.1,46.2,35.0,44.8,38.0,31.9,91,75,51,30.15,30.00,8,0,8,0.00
2014-11-11,66.1,55.0,41.0,59.5,51.5,39.0,96,88,77,30.08,29.86,5,0,7,0.00
2014-11-12,68.2,59.3,43.6,59.8,52.7,32.6,97,80,49,30.06,29.84,17,2,17,0.00
2014-11-13,46.0,41.0,34.3,35.6,31.9,29.3,94,70,57,30.11,29.99,10,2,12,0.05
2014-11-14,41.8,35.3,32.1,33.8,28.4,22.5,94,77,51,30.21,29.97,14,3,20,0.10
2014-11-15,44.5,34.8,28.7,27.1,24.0,22.5,82,65,46,30.37,30.20,15,2,15,0.01
2014-11-16,42.7,37.6,28.5,37.4,31.0,23.7,94,77,61,30.36,30.04,10,1,10,0.20
2014-11-17,47.5,42.2,38.9,46.7,40.9,33.4,97,95,74,30.04,29.49,16,1,16,1.21
2014-11-18,41.4,29.6,22.7,34.0,14.3,7.5,76,53,40,30.16,29.66,23,5,23,0.00
2014-11-19,34.4,27.6,19.7,23.0,13.7,8.5,65,56,45,30.30,30.01,17,3,17,0.00
2014-11-20,50.0,37.9,29.3,30.9,23.6,14.6,73,56,47,30.06,29.83,16,3,16,0.00
2014-11-21,37.2,30.3,26.1,16.8,14.5,12.4,62,52,41,30.50,30.06,19,2,19,0.00
2014-11-22,45.7,29.3,20.9,29.3,18.2,13.8,80,64,42,30.50,30.21,22,1,22,0.00
2014-11-23,52.9,42.2,34.1,50.8,30.7,26.9,93,65,47,30.22,29.86,12,1,12,0.00
2014-11-24,71.8,63.4,52.9,63.9,59.2,50.6,97,87,71,29.86,29.56,24,6,24,0.45
2014-11-25,66.3,53.2,43.5,60.6,42.2,35.4,90,67,51,30.15,29.71,18,2,18,0.00
2014-11-26,47.4,38.0,33.0,39.2,34.7,31.2,95,88,64,30.15,29.77,19,4,19,1.24
2014-11-27,40.6,35.2,29.3,33.6,30.7,26.6,91,84,72,30.09,29.89,12,2,12,0.05
2014-11-28,39.5,31.9,25.6,29.7,23.8,20.6,92,73,49,30.26,30.07,21,3,21,0.00
2014-11-29,41.6,30.8,23.8,34.5,24.0,19.4,86,76,62,30.34,30.15,13,1,13,0.00
2014-11-30,52.9,42.6,38.7,40.4,35.9,34.5,86,77,62,30.16,30.06,16,3,16,0.00
2014-12-1,46.0,42.7,40.9,42.3,36.9,32.5,87,80,71,30.42,30.31,15,5,15,0.10
2014-12-2,40.9,37.2,34.2,39.8,30.0,26.9,96,75,62,30.56,30.23,12,3,14,0.32
2014-12-3,45.0,41.1,37.7,44.2,39.2,28.8,97,93,70,30.24,29.97,13,2,13,0.12
2014-12-4,45.4,36.7,28.8,32.0,28.7,26.5,92,74,53,30.48,30.24,11,1,11,0.00
2014-12-5,42.5,39.0,34.8,39.0,32.0,25.3,94,76,65,30.52,30.32,10,2,10,0.11
2014-12-6,48.0,43.6,40.1,47.2,42.3,38.0,97,95,91,30.32,30.03,18,2,20,0.83
2014-12-7,47.4,38.9,31.5,38.1,26.3,13.6,92,62,44,30.55,30.16,24,6,24,0.01
2014-12-8,32.8,29.5,26.1,24.7,17.5,9.7,76,61,47,30.59,30.41,15,4,15,0.00
2014-12-9,43.5,38.1,34.4,41.8,36.1,31.9,100,92,83,30.21,29.72,21,7,26,0.61
2014-12-10,41.9,38.8,33.5,37.4,32.3,26.3,86,77,64,29.74,29.65,28,6,28,0.02
2014-12-11,36.4,33.3,31.5,30.9,29.2,26.4,95,85,74,29.92,29.71,18,3,18,0.05
2014-12-12,42.0,36.5,32.6,32.6,28.9,25.3,83,74,61,30.03,29.91,10,2,11,0.00
2014-12-13,41.1,36.8,32.5,33.0,29.6,25.6,79,75,68,30.03,29.93,14,3,17,0.00
2014-12-14,45.5,40.8,34.9,38.4,34.3,29.4,85,78,73,29.98,29.88,18,2,18,0.00
2014-12-15,48.7,42.1,32.6,38.7,35.4,30.5,92,77,66,30.08,29.97,12,2,12,0.00
2014-12-16,49.3,40.9,31.6,46.2,39.3,29.8,100,94,83,30.07,29.82,7,0,7,0.15
2014-12-17,52.8,43.6,36.2,44.5,36.9,26.5,96,78,62,29.97,29.80,18,2,18,0.01
2014-12-18,40.2,35.7,32.5,28.1,25.7,21.0,76,67,60,30.08,29.95,20,3,20,0.00
2014-12-19,43.2,36.8,34.6,29.0,27.7,27.2,75,70,55,30.07,30.00,14,2,14,0.00
2014-12-20,35.4,31.8,29.0,26.0,24.9,23.5,84,75,66,30.28,30.16,6,1,10,0.00
2014-12-21,41.4,32.0,27.7,29.0,25.4,22.7,92,77,58,30.32,30.25,12,1,12,0.00
2014-12-22,42.5,35.8,25.8,40.6,31.6,22.1,95,85,79,30.31,30.06,11,2,11,0.03
2014-12-23,50.3,47.7,41.9,49.5,46.6,40.6,97,96,94,30.06,29.98,13,3,13,0.12
2014-12-24,60.9,52.0,46.0,60.2,51.4,45.0,99,98,96,30.03,29.50,16,2,16,1.15
2014-12-25,62.6,49.7,35.8,61.7,41.7,31.9,98,75,54,30.17,29.49,20,3,22,0.07
2014-12-26,50.2,39.5,30.8,36.6,32.6,28.2,91,77,58,30.30,30.15,8,1,12,0.00
2014-12-27,55.0,41.3,31.7,41.4,34.9,29.6,100,80,47,30.26,30.05,5,0,6,0.00
2014-12-28,55.6,46.6,37.5,46.5,41.7,34.8,93,83,66,30.06,29.88,10,0,10,0.04
2014-12-29,46.6,41.4,34.5,37.9,31.1,23.6,80,67,50,30.23,30.05,10,2,10,0.00
2014-12-30,38.6,32.0,25.1,25.3,21.6,17.3,79,66,47,30.39,30.23,10,2,13,0.00
2014-12-31,33.7,26.2,23.7,19.8,16.3,13.2,81,67,45,30.40,30.18,10,2,18,0.00
2015-1-1,41.1,32.8,25.0,23.4,17.8,11.7,70,54,42,30.19,30.00,19,3,19,0.00
2015-1-2,42.7,37.2,30.2,26.4,23.2,20.5,75,57,50,30.41,30.03,16,2,16,0.00